createdAt,value
2023-05-11T00:01:22.285Z,25.54
2023-05-11T00:03:22.548Z,25.65
2023-05-11T00:05:22.424Z,25.57
2023-05-11T00:07:22.416Z,25.60
2023-05-11T00:09:22.443Z,25.53
2023-05-11T00:11:22.440Z,25.55
2023-05-11T00:13:22.217Z,25.57
2023-05-11T00:15:22.380Z,25.57
2023-05-11T00:17:22.546Z,25.55
2023-05-11T00:19:22.446Z,25.61
2023-05-11T00:21:22.437Z,25.52
2023-05-11T00:23:22.349Z,25.54
2023-05-11T00:25:22.374Z,25.54
2023-05-11T00:27:22.427Z,25.52
2023-05-11T00:29:22.427Z,25.56
2023-05-11T00:31:22.424Z,25.54
2023-05-11T00:33:22.375Z,25.63
2023-05-11T00:35:22.507Z,25.61
2023-05-11T00:37:22.439Z,25.52
2023-05-11T00:39:22.444Z,25.52
2023-05-11T00:41:22.418Z,25.53
2023-05-11T00:43:22.451Z,25.52
2023-05-11T00:45:22.439Z,25.54
2023-05-11T00:47:22.400Z,25.49
2023-05-11T00:49:22.433Z,25.53
2023-05-11T00:51:22.412Z,25.55
2023-05-11T00:53:22.387Z,25.52
2023-05-11T00:55:22.467Z,25.52
2023-05-11T00:57:22.469Z,25.52
2023-05-11T00:59:22.430Z,25.53
2023-05-11T01:01:22.635Z,25.52
2023-05-11T01:03:22.518Z,25.52
2023-05-11T01:05:22.355Z,25.53
2023-05-11T01:07:22.456Z,25.52
2023-05-11T01:09:22.502Z,25.53
2023-05-11T01:11:22.482Z,25.52
2023-05-11T01:13:22.419Z,25.56
2023-05-11T01:15:22.401Z,25.56
2023-05-11T01:17:22.551Z,25.57
2023-05-11T01:19:22.470Z,25.54
2023-05-11T01:21:22.436Z,25.61
2023-05-11T01:23:22.472Z,25.52
2023-05-11T01:25:22.485Z,25.54
2023-05-11T01:27:22.531Z,25.52
2023-05-11T01:29:22.471Z,25.52
2023-05-11T01:31:22.520Z,25.53
2023-05-11T01:33:22.533Z,25.52
2023-05-11T01:35:22.511Z,25.52
2023-05-11T01:37:22.458Z,25.52
2023-05-11T01:39:22.425Z,25.61
2023-05-11T01:41:22.461Z,25.54
2023-05-11T01:43:22.424Z,25.56
2023-05-11T01:45:22.478Z,25.52
2023-05-11T01:47:22.564Z,25.53
2023-05-11T01:49:22.485Z,25.63
2023-05-11T01:51:22.562Z,25.52
2023-05-11T01:53:22.568Z,25.52
2023-05-11T01:55:22.547Z,25.58
2023-05-11T01:57:22.495Z,25.52
2023-05-11T01:59:22.448Z,25.53
2023-05-11T02:01:22.473Z,24.48
2023-05-11T02:03:22.668Z,24.37
2023-05-11T02:05:22.540Z,24.29
2023-05-11T02:07:22.626Z,24.16
2023-05-11T02:09:22.551Z,24.12
2023-05-11T02:11:22.533Z,24.13
2023-05-11T02:13:22.539Z,24.12
2023-05-11T02:15:22.560Z,24.08
2023-05-11T02:17:22.562Z,24.10
2023-05-11T02:19:22.411Z,24.09
2023-05-11T02:21:22.364Z,23.81
2023-05-11T02:23:22.537Z,23.41
2023-05-11T02:25:22.527Z,23.26
2023-05-11T02:27:22.540Z,23.27
2023-05-11T02:29:22.556Z,23.16
2023-05-11T02:31:22.563Z,23.16
2023-05-11T02:33:22.476Z,23.41
2023-05-11T02:35:22.502Z,23.62
2023-05-11T02:37:22.608Z,23.80
2023-05-11T02:39:22.527Z,23.80
2023-05-11T02:41:22.565Z,23.81
2023-05-11T02:43:22.593Z,23.77
2023-05-11T02:45:22.622Z,23.80
2023-05-11T02:47:22.622Z,23.73
2023-05-11T02:49:22.528Z,23.82
2023-05-11T02:51:22.501Z,23.76
2023-05-11T02:53:22.614Z,23.72
2023-05-11T02:55:22.542Z,23.77
2023-05-11T02:57:22.616Z,23.73
2023-05-11T02:59:22.495Z,23.72
2023-05-11T03:01:22.655Z,23.69
2023-05-11T03:03:22.739Z,23.15
2023-05-11T03:05:22.682Z,23.05
2023-05-11T03:07:22.688Z,22.99
2023-05-11T03:09:22.634Z,22.99
2023-05-11T03:11:22.556Z,22.98
2023-05-11T03:13:22.642Z,23.44
2023-05-11T03:15:22.577Z,23.52
2023-05-11T03:17:22.710Z,23.30
2023-05-11T03:19:22.521Z,23.24
2023-05-11T03:21:22.622Z,23.15
2023-05-11T03:23:22.656Z,23.22
2023-05-11T03:25:22.605Z,23.25
2023-05-11T03:27:22.657Z,23.45
2023-05-11T03:29:22.660Z,23.49
2023-05-11T03:31:22.673Z,23.39
2023-05-11T03:33:22.563Z,23.13
2023-05-11T03:35:22.654Z,23.36
2023-05-11T03:37:22.680Z,23.34
2023-05-11T03:39:22.623Z,23.37
2023-05-11T03:41:22.556Z,23.38
2023-05-11T03:43:22.550Z,23.06
2023-05-11T03:45:22.678Z,22.91
2023-05-11T03:47:22.674Z,22.96
2023-05-11T03:49:22.637Z,22.87
2023-05-11T03:51:22.590Z,22.87
2023-05-11T03:53:22.645Z,23.12
2023-05-11T03:55:22.549Z,23.23
2023-05-11T03:57:22.616Z,23.26
2023-05-11T03:59:22.568Z,23.20
2023-05-11T04:01:22.578Z,23.03
2023-05-11T04:03:22.867Z,22.95
2023-05-11T04:05:22.686Z,23.11
2023-05-11T04:07:22.725Z,22.92
2023-05-11T04:09:22.648Z,22.92
2023-05-11T04:11:22.570Z,22.87
2023-05-11T04:13:22.673Z,22.91
2023-05-11T04:15:22.698Z,22.82
2023-05-11T04:17:22.702Z,23.04
2023-05-11T04:19:22.733Z,23.09
2023-05-11T04:21:22.625Z,23.12
2023-05-11T04:23:22.544Z,23.01
2023-05-11T04:25:22.661Z,22.80
2023-05-11T04:27:22.741Z,22.74
2023-05-11T04:29:22.748Z,22.73
2023-05-11T04:31:22.732Z,22.84
2023-05-11T04:33:22.674Z,22.83
2023-05-11T04:35:22.652Z,23.20
2023-05-11T04:37:22.657Z,23.29
2023-05-11T04:39:22.646Z,23.27
2023-05-11T04:41:22.729Z,23.25
2023-05-11T04:43:22.668Z,23.34
2023-05-11T04:45:22.732Z,23.26
2023-05-11T04:47:22.544Z,23.26
2023-05-11T04:49:22.749Z,23.26
2023-05-11T04:51:22.731Z,23.25
2023-05-11T04:53:22.610Z,23.36
2023-05-11T04:55:22.782Z,23.30
2023-05-11T04:57:22.662Z,23.33
2023-05-11T04:59:22.651Z,23.02
2023-05-11T05:01:22.770Z,23.06
2023-05-11T05:03:22.724Z,23.11
2023-05-11T05:05:22.636Z,22.75
2023-05-11T05:07:22.703Z,22.74
2023-05-11T05:09:22.735Z,22.82
2023-05-11T05:11:22.696Z,22.80
2023-05-11T05:13:22.647Z,22.81
2023-05-11T05:15:22.746Z,23.17
2023-05-11T05:17:22.672Z,23.33
2023-05-11T05:19:22.648Z,23.26
2023-05-11T05:21:22.665Z,23.36
2023-05-11T05:23:22.765Z,23.43
2023-05-11T05:25:22.678Z,23.37
2023-05-11T05:27:22.739Z,23.37
2023-05-11T05:29:22.721Z,23.46
2023-05-11T05:31:22.684Z,23.47
2023-05-11T05:33:22.821Z,23.47
2023-05-11T05:35:22.782Z,23.42
2023-05-11T05:37:22.731Z,23.51
2023-05-11T05:39:22.771Z,23.50
2023-05-11T05:41:22.771Z,23.53
2023-05-11T05:43:22.631Z,23.53
2023-05-11T05:45:22.733Z,23.12
2023-05-11T05:47:22.791Z,22.80
2023-05-11T05:49:22.726Z,22.68
2023-05-11T05:51:22.801Z,22.70
2023-05-11T05:53:22.774Z,22.68
2023-05-11T05:55:22.797Z,22.85
2023-05-11T05:57:22.747Z,23.20
2023-05-11T05:59:22.748Z,23.34
2023-05-11T06:01:22.792Z,23.38
2023-05-11T06:03:22.898Z,23.43
2023-05-11T06:05:22.744Z,23.53
2023-05-11T06:07:22.792Z,23.49
2023-05-11T06:09:22.793Z,23.50
2023-05-11T06:11:22.743Z,23.54
2023-05-11T06:13:22.766Z,23.57
2023-05-11T06:15:22.749Z,23.49
2023-05-11T06:17:22.787Z,23.58
2023-05-11T06:19:22.788Z,23.65
2023-05-11T06:21:22.711Z,23.66
2023-05-11T06:23:22.820Z,23.70
2023-05-11T06:25:22.827Z,23.67
2023-05-11T06:27:22.857Z,22.97
2023-05-11T06:29:22.761Z,22.81
2023-05-11T06:31:22.875Z,22.82
2023-05-11T06:33:22.908Z,22.84
2023-05-11T06:35:22.786Z,22.80
2023-05-11T06:37:22.812Z,22.99
2023-05-11T06:39:22.802Z,23.03
2023-05-11T06:41:22.830Z,23.13
2023-05-11T06:43:22.879Z,23.10
2023-05-11T06:45:22.946Z,23.06
2023-05-11T06:47:22.886Z,23.52
2023-05-11T06:49:22.836Z,23.56
2023-05-11T06:51:22.867Z,23.82
2023-05-11T06:53:22.723Z,23.82
2023-05-11T06:55:22.772Z,23.93
2023-05-11T06:57:22.750Z,23.95
2023-05-11T06:59:22.912Z,24.09
2023-05-11T07:01:22.794Z,24.07
2023-05-11T07:03:22.804Z,24.16
2023-05-11T07:05:22.847Z,24.12
2023-05-11T07:07:22.861Z,23.82
2023-05-11T07:09:22.866Z,23.23
2023-05-11T07:11:22.841Z,22.99
2023-05-11T07:13:22.842Z,22.87
2023-05-11T07:15:22.928Z,22.93
2023-05-11T07:17:22.945Z,22.85
2023-05-11T07:19:22.795Z,23.53
2023-05-11T07:21:22.846Z,23.76
2023-05-11T07:23:22.910Z,23.90
2023-05-11T07:25:22.888Z,24.00
2023-05-11T07:27:22.884Z,23.84
2023-05-11T07:29:23.019Z,23.63
2023-05-11T07:31:22.905Z,23.53
2023-05-11T07:33:22.887Z,23.48
2023-05-11T07:35:24.200Z,23.42
2023-05-11T07:37:22.889Z,23.37
2023-05-11T07:39:22.813Z,23.81
2023-05-11T07:41:22.920Z,24.00
2023-05-11T07:43:22.841Z,24.12
2023-05-11T07:45:22.898Z,24.21
2023-05-11T07:47:22.903Z,24.32
2023-05-11T07:49:28.179Z,23.50
2023-05-11T07:51:22.888Z,23.12
2023-05-11T07:53:22.884Z,22.97
2023-05-11T07:55:22.866Z,22.99
2023-05-11T07:57:22.925Z,22.96
2023-05-11T07:59:22.879Z,23.53
2023-05-11T08:01:22.861Z,23.86
2023-05-11T08:03:23.067Z,24.10
2023-05-11T08:05:22.870Z,24.39
2023-05-11T08:07:22.902Z,24.27
2023-05-11T08:09:22.868Z,24.39
2023-05-11T08:11:22.920Z,24.35
2023-05-11T08:13:23.120Z,24.44
2023-05-11T08:15:22.849Z,24.25
2023-05-11T08:17:22.973Z,24.43
2023-05-11T08:19:22.980Z,24.10
2023-05-11T08:21:22.854Z,23.87
2023-05-11T08:23:22.841Z,23.81
2023-05-11T08:25:22.946Z,23.95
2023-05-11T08:27:22.922Z,24.01
2023-05-11T08:29:22.988Z,23.70
2023-05-11T08:31:23.053Z,23.39
2023-05-11T08:33:36.661Z,23.27
2023-05-11T08:35:23.028Z,23.25
2023-05-11T08:37:22.964Z,23.16
2023-05-11T08:39:39.012Z,23.56
2023-05-11T08:41:22.929Z,24.22
2023-05-11T08:43:22.970Z,24.18
2023-05-11T08:45:22.965Z,24.29
2023-05-11T08:47:23.960Z,24.66
2023-05-11T08:49:22.779Z,24.67
2023-05-11T08:51:22.985Z,24.70
2023-05-11T08:53:22.866Z,24.72
2023-05-11T08:55:22.860Z,24.71
2023-05-11T08:57:22.993Z,24.82
2023-05-11T08:59:22.963Z,24.82
2023-05-11T09:01:23.125Z,24.80
2023-05-11T09:03:22.997Z,24.75
2023-05-11T09:05:23.105Z,24.90
2023-05-11T09:07:22.927Z,24.86
2023-05-11T09:09:23.061Z,24.87
2023-05-11T09:11:23.054Z,23.85
2023-05-11T09:13:23.035Z,23.73
2023-05-11T09:15:23.007Z,23.65
2023-05-11T09:17:23.028Z,23.54
2023-05-11T09:19:22.988Z,23.42
2023-05-11T09:21:23.049Z,24.12
2023-05-11T09:23:22.962Z,24.54
2023-05-11T09:25:22.977Z,24.80
2023-05-11T09:27:22.973Z,24.76
2023-05-11T09:29:23.023Z,24.85
2023-05-11T09:31:23.034Z,24.89
2023-05-11T09:33:23.017Z,24.87
2023-05-11T09:35:23.056Z,24.92
2023-05-11T09:37:23.046Z,24.94
2023-05-11T09:39:35.543Z,24.90
2023-05-11T09:41:22.995Z,24.92
2023-05-11T09:43:23.063Z,24.95
2023-05-11T09:45:22.928Z,24.95
2023-05-11T09:47:22.860Z,24.95
2023-05-11T09:49:23.020Z,24.95
2023-05-11T09:51:22.924Z,24.08
2023-05-11T09:53:24.389Z,23.83
2023-05-11T09:55:23.033Z,23.81
2023-05-11T09:57:23.046Z,23.76
2023-05-11T09:59:24.190Z,23.79
2023-05-11T10:01:23.066Z,23.90
2023-05-11T10:03:23.069Z,24.18
2023-05-11T10:05:23.024Z,24.30
2023-05-11T10:07:23.076Z,24.33
2023-05-11T10:09:22.966Z,24.38
2023-05-11T10:11:25.506Z,24.61
2023-05-11T10:13:23.041Z,24.85
2023-05-11T10:15:23.098Z,24.90
2023-05-11T10:17:23.069Z,25.04
2023-05-11T10:19:23.067Z,24.98
2023-05-11T10:21:23.075Z,25.06
2023-05-11T10:23:23.028Z,24.85
2023-05-11T10:25:23.099Z,24.83
2023-05-11T10:27:23.086Z,25.01
2023-05-11T10:29:23.098Z,25.19
2023-05-11T10:31:23.195Z,25.24
2023-05-11T10:33:23.121Z,24.55
2023-05-11T10:35:23.089Z,24.48
2023-05-11T10:37:23.121Z,24.39
2023-05-11T10:39:23.088Z,24.30
2023-05-11T10:41:23.104Z,24.40
2023-05-11T10:43:23.040Z,24.98
2023-05-11T10:45:23.100Z,25.18
2023-05-11T10:47:23.034Z,24.95
2023-05-11T10:49:23.053Z,24.93
2023-05-11T10:51:23.034Z,24.70
2023-05-11T10:53:23.063Z,24.58
2023-05-11T10:55:23.099Z,24.76
2023-05-11T10:57:23.075Z,24.87
2023-05-11T10:59:23.093Z,25.23
2023-05-11T11:01:23.019Z,25.32
2023-05-11T11:03:23.092Z,25.31
2023-05-11T11:05:23.141Z,25.22
2023-05-11T11:07:23.098Z,25.35
2023-05-11T11:09:23.020Z,25.26
2023-05-11T11:11:23.087Z,25.19
2023-05-11T11:13:23.082Z,24.52
2023-05-11T11:15:23.129Z,24.13
2023-05-11T11:17:23.160Z,24.05
2023-05-11T11:19:23.080Z,24.05
2023-05-11T11:21:24.484Z,23.97
2023-05-11T11:23:23.102Z,24.48
2023-05-11T11:25:23.131Z,24.80
2023-05-11T11:27:25.108Z,25.09
2023-05-11T11:29:23.158Z,25.09
2023-05-11T11:31:23.201Z,25.26
2023-05-11T11:33:23.075Z,25.23
2023-05-11T11:35:23.175Z,24.97
2023-05-11T11:37:23.123Z,24.63
2023-05-11T11:39:23.131Z,24.64
2023-05-11T11:41:23.129Z,24.77
2023-05-11T11:43:23.180Z,24.80
2023-05-11T11:45:23.182Z,24.86
2023-05-11T11:47:23.134Z,24.94
2023-05-11T11:49:23.089Z,25.40
2023-05-11T11:51:23.183Z,25.60
2023-05-11T11:53:23.078Z,25.32
2023-05-11T11:55:23.187Z,24.48
2023-05-11T11:57:23.169Z,24.35
2023-05-11T11:59:23.162Z,24.22
2023-05-11T12:01:23.227Z,24.20
2023-05-11T12:03:23.320Z,24.08
2023-05-11T12:05:23.779Z,24.96
2023-05-11T12:07:23.221Z,25.11
2023-05-11T12:09:23.164Z,25.19
2023-05-11T12:11:23.246Z,25.23
2023-05-11T12:13:23.176Z,25.08
2023-05-11T12:15:23.211Z,24.95
2023-05-11T12:17:23.267Z,24.92
2023-05-11T12:19:23.200Z,24.87
2023-05-11T12:21:23.140Z,24.52
2023-05-11T12:23:23.191Z,24.36
2023-05-11T12:25:23.431Z,24.48
2023-05-11T12:27:23.161Z,24.59
2023-05-11T12:29:23.071Z,24.25
2023-05-11T12:31:23.233Z,24.16
2023-05-11T12:33:23.183Z,24.20
2023-05-11T12:35:23.232Z,23.69
2023-05-11T12:37:23.171Z,23.58
2023-05-11T12:39:23.262Z,23.65
2023-05-11T12:41:23.135Z,23.73
2023-05-11T12:43:23.194Z,23.58
2023-05-11T12:45:23.194Z,24.07
2023-05-11T12:47:23.252Z,24.22
2023-05-11T12:49:24.862Z,24.38
2023-05-11T12:51:23.229Z,24.52
2023-05-11T12:53:23.149Z,24.63
2023-05-11T12:55:23.266Z,24.66
2023-05-11T12:57:23.222Z,24.74
2023-05-11T12:59:23.322Z,24.84
2023-05-11T13:01:23.267Z,24.90
2023-05-11T13:03:23.341Z,24.98
2023-05-11T13:05:23.244Z,25.09
2023-05-11T13:07:23.555Z,25.19
2023-05-11T13:09:23.248Z,25.24
2023-05-11T13:11:23.211Z,25.24
2023-05-11T13:13:23.146Z,25.29
2023-05-11T13:15:23.270Z,24.62
2023-05-11T13:17:23.271Z,24.20
2023-05-11T13:19:23.160Z,23.83
2023-05-11T13:21:23.277Z,23.67
2023-05-11T13:23:23.149Z,23.59
2023-05-11T13:25:23.271Z,23.47
2023-05-11T13:27:24.384Z,23.93
2023-05-11T13:29:23.204Z,24.08
2023-05-11T13:31:23.266Z,25.28
2023-05-11T13:33:24.401Z,24.58
2023-05-11T13:35:23.321Z,24.71
2023-05-11T13:37:23.358Z,24.71
2023-05-11T13:39:23.253Z,24.82
2023-05-11T13:41:23.303Z,24.57
2023-05-11T13:43:23.301Z,24.57
2023-05-11T13:45:23.165Z,24.99
2023-05-11T13:47:23.367Z,25.10
2023-05-11T13:49:23.216Z,25.23
2023-05-11T13:51:23.295Z,25.23
2023-05-11T13:53:23.284Z,25.35
2023-05-11T13:55:23.173Z,25.44
2023-05-11T13:57:23.314Z,24.44
2023-05-11T13:59:23.318Z,24.14
2023-05-11T14:01:23.295Z,23.96
2023-05-11T14:03:23.420Z,23.92
2023-05-11T14:05:23.377Z,23.77
2023-05-11T14:07:29.789Z,24.27
2023-05-11T14:09:23.312Z,24.69
2023-05-11T14:11:23.275Z,24.19
2023-05-11T14:13:23.330Z,24.24
2023-05-11T14:15:23.375Z,24.10
2023-05-11T14:17:23.374Z,24.02
2023-05-11T14:19:23.316Z,23.76
2023-05-11T14:21:23.329Z,24.09
2023-05-11T14:23:23.354Z,24.25
2023-05-11T14:25:23.276Z,24.41
2023-05-11T14:27:23.281Z,24.57
2023-05-11T14:29:23.326Z,24.54
2023-05-11T14:31:23.483Z,24.66
2023-05-11T14:33:23.319Z,24.66
2023-05-11T14:35:23.352Z,24.66
2023-05-11T14:37:23.337Z,24.08
2023-05-11T14:39:23.311Z,23.49
2023-05-11T14:41:23.382Z,23.25
2023-05-11T14:43:23.336Z,23.18
2023-05-11T14:45:23.327Z,23.26
2023-05-11T14:47:23.484Z,23.39
2023-05-11T14:49:23.404Z,23.81
2023-05-11T14:51:23.168Z,24.04
2023-05-11T14:53:23.282Z,24.10
2023-05-11T14:55:23.335Z,24.20
2023-05-11T14:57:23.433Z,24.27
2023-05-11T14:59:23.376Z,24.33
2023-05-11T15:01:23.397Z,23.94
2023-05-11T15:03:23.389Z,23.65
2023-05-11T15:05:23.405Z,23.23
2023-05-11T15:07:23.451Z,23.26
2023-05-11T15:09:23.384Z,23.34
2023-05-11T15:11:23.427Z,23.31
2023-05-11T15:13:23.391Z,23.57
2023-05-11T15:15:23.403Z,23.65
2023-05-11T15:17:23.506Z,23.81
2023-05-11T15:19:23.317Z,23.09
2023-05-11T15:21:23.399Z,22.98
2023-05-11T15:23:23.379Z,22.91
2023-05-11T15:25:23.339Z,22.94
2023-05-11T15:27:23.444Z,22.87
2023-05-11T15:29:23.425Z,23.27
2023-05-11T15:31:23.327Z,23.48
2023-05-11T15:33:23.323Z,23.57
2023-05-11T15:35:23.350Z,23.62
2023-05-11T15:37:23.397Z,23.73
2023-05-11T15:39:23.404Z,23.80
2023-05-11T15:41:23.418Z,23.81
2023-05-11T15:43:23.408Z,23.82
2023-05-11T15:45:23.284Z,23.95
2023-05-11T15:47:23.368Z,23.96
2023-05-11T15:49:23.377Z,23.90
2023-05-11T15:51:23.408Z,23.94
2023-05-11T15:53:23.409Z,23.62
2023-05-11T15:55:23.308Z,23.42
2023-05-11T15:57:23.314Z,23.23
2023-05-11T15:59:23.420Z,22.92
2023-05-11T16:01:23.373Z,22.72
2023-05-11T16:03:23.390Z,22.87
2023-05-11T16:05:23.494Z,22.88
2023-05-11T16:07:23.449Z,22.94
2023-05-11T16:09:23.442Z,23.04
2023-05-11T16:11:23.408Z,23.43
2023-05-11T16:13:23.392Z,23.39
2023-05-11T16:15:23.481Z,23.41
2023-05-11T16:17:23.447Z,23.44
2023-05-11T16:19:23.445Z,23.40
2023-05-11T16:21:23.393Z,23.39
2023-05-11T16:23:23.399Z,23.40
2023-05-11T16:25:23.454Z,23.47
2023-05-11T16:27:23.368Z,23.39
2023-05-11T16:29:23.440Z,23.34
2023-05-11T16:31:23.501Z,23.29
2023-05-11T16:33:23.515Z,23.30
2023-05-11T16:35:23.456Z,23.26
2023-05-11T16:37:23.483Z,23.31
2023-05-11T16:39:23.444Z,23.26
2023-05-11T16:41:23.455Z,22.78
2023-05-11T16:43:23.481Z,22.74
2023-05-11T16:45:23.486Z,22.56
2023-05-11T16:47:23.549Z,22.51
2023-05-11T16:49:23.536Z,22.56
2023-05-11T16:51:23.578Z,22.77
2023-05-11T16:53:23.450Z,22.85
2023-05-11T16:55:23.342Z,23.03
2023-05-11T16:57:23.509Z,23.11
2023-05-11T16:59:23.532Z,23.09
2023-05-11T17:01:23.598Z,23.09
2023-05-11T17:03:23.539Z,23.10
2023-05-11T17:05:23.489Z,23.06
2023-05-11T17:07:23.468Z,23.15
2023-05-11T17:09:23.493Z,23.17
2023-05-11T17:11:23.433Z,23.15
2023-05-11T17:13:23.376Z,23.12
2023-05-11T17:15:23.498Z,23.13
2023-05-11T17:17:23.425Z,23.11
2023-05-11T17:19:23.494Z,23.12
2023-05-11T17:21:23.511Z,22.73
2023-05-11T17:23:23.442Z,22.68
2023-05-11T17:25:23.502Z,22.41
2023-05-11T17:27:23.556Z,22.60
2023-05-11T17:29:23.514Z,22.59
2023-05-11T17:31:23.582Z,22.46
2023-05-11T17:33:23.683Z,22.49
2023-05-11T17:35:23.582Z,22.46
2023-05-11T17:37:31.138Z,22.60
2023-05-11T17:39:23.494Z,22.83
2023-05-11T17:41:23.524Z,22.55
2023-05-11T17:43:23.467Z,22.50
2023-05-11T17:45:23.513Z,22.81
2023-05-11T17:47:23.541Z,22.96
2023-05-11T17:49:23.530Z,23.02
2023-05-11T17:51:23.529Z,22.90
2023-05-11T17:53:23.508Z,22.93
2023-05-11T17:55:23.514Z,22.56
2023-05-11T17:57:23.540Z,22.48
2023-05-11T17:59:23.390Z,22.40
2023-05-11T18:01:23.488Z,22.92
2023-05-11T18:03:23.674Z,22.99
2023-05-11T18:05:33.399Z,23.01
2023-05-11T18:07:23.524Z,23.08
2023-05-11T18:09:23.650Z,23.02
2023-05-11T18:11:23.603Z,23.11
2023-05-11T18:13:23.455Z,23.08
2023-05-11T18:15:23.625Z,23.11
2023-05-11T18:17:23.696Z,23.05
2023-05-11T18:19:23.551Z,23.05
2023-05-11T18:21:23.541Z,23.06
2023-05-11T18:23:23.557Z,22.96
2023-05-11T18:25:23.539Z,23.00
2023-05-11T18:27:23.610Z,23.05
2023-05-11T18:29:23.604Z,22.99
2023-05-11T18:31:23.619Z,23.03
2023-05-11T18:33:23.654Z,23.01
2023-05-11T18:35:23.565Z,23.10
2023-05-11T18:37:23.591Z,23.06
2023-05-11T18:39:23.646Z,23.06
2023-05-11T18:41:23.751Z,23.13
2023-05-11T18:43:23.561Z,23.10
2023-05-11T18:45:23.557Z,22.98
2023-05-11T18:47:23.690Z,23.03
2023-05-11T18:49:23.649Z,23.00
2023-05-11T18:51:23.582Z,23.05
2023-05-11T18:53:23.672Z,22.96
2023-05-11T18:55:23.568Z,23.01
2023-05-11T18:57:23.604Z,22.97
2023-05-11T18:59:23.565Z,23.10
2023-05-11T19:01:30.282Z,22.98
2023-05-11T19:03:23.674Z,22.98
2023-05-11T19:05:23.659Z,23.02
2023-05-11T19:07:23.564Z,23.09
2023-05-11T19:09:23.595Z,22.96
2023-05-11T19:11:23.963Z,23.03
2023-05-11T19:13:23.613Z,23.04
2023-05-11T19:15:23.631Z,23.10
2023-05-11T19:17:23.663Z,24.72
2023-05-11T19:19:23.536Z,25.07
2023-05-11T19:21:23.700Z,25.15
2023-05-11T19:23:23.550Z,25.18
2023-05-11T19:25:23.693Z,25.15
2023-05-11T19:27:23.672Z,25.31
2023-05-11T19:29:23.597Z,25.23
2023-05-11T19:31:23.734Z,25.29
2023-05-11T19:33:23.636Z,25.37
2023-05-11T19:35:23.628Z,25.40
2023-05-11T19:37:23.619Z,25.52
2023-05-11T19:39:23.637Z,25.63
2023-05-11T19:41:23.677Z,25.78
2023-05-11T19:43:23.691Z,26.11
2023-05-11T19:45:23.649Z,26.11
2023-05-11T19:47:23.687Z,26.32
2023-05-11T19:49:23.713Z,26.38
2023-05-11T19:51:23.811Z,26.51
2023-05-11T19:53:23.670Z,26.64
2023-05-11T19:55:23.612Z,26.65
2023-05-11T19:57:23.533Z,26.63
2023-05-11T19:59:23.641Z,26.65
2023-05-11T20:01:23.655Z,26.64
2023-05-11T20:03:24.459Z,26.80
2023-05-11T20:05:23.682Z,26.81
2023-05-11T20:07:23.740Z,26.69
2023-05-11T20:09:23.754Z,26.79
2023-05-11T20:11:23.831Z,26.74
2023-05-11T20:13:23.800Z,26.73
2023-05-11T20:15:23.716Z,26.74
2023-05-11T20:17:23.699Z,26.85
2023-05-11T20:19:23.716Z,26.67
2023-05-11T20:21:23.716Z,26.85
2023-05-11T20:23:23.717Z,26.69
2023-05-11T20:25:23.802Z,26.68
2023-05-11T20:27:23.670Z,26.75
2023-05-11T20:29:23.733Z,26.77
2023-05-11T20:31:23.863Z,26.77
2023-05-11T20:35:23.673Z,26.76
2023-05-11T20:37:23.782Z,26.77
2023-05-11T20:39:23.644Z,26.75
2023-05-11T20:41:23.696Z,26.71
2023-05-11T20:43:23.749Z,26.85
2023-05-11T20:45:23.774Z,26.93
2023-05-11T20:47:23.608Z,26.80
2023-05-11T20:49:37.545Z,26.84
2023-05-11T20:51:23.747Z,26.88
2023-05-11T20:53:23.734Z,27.01
2023-05-11T20:55:23.769Z,27.03
2023-05-11T20:57:23.678Z,26.85
2023-05-11T21:01:23.820Z,26.89
2023-05-11T21:03:23.830Z,26.93
2023-05-11T21:05:25.560Z,26.79
2023-05-11T21:07:23.777Z,26.89
2023-05-11T21:09:23.930Z,26.79
2023-05-11T21:11:23.793Z,26.81
2023-05-11T21:13:23.773Z,26.92
2023-05-11T21:15:23.725Z,26.84
2023-05-11T21:17:23.717Z,25.29
2023-05-11T21:19:23.757Z,25.21
2023-05-11T21:21:23.672Z,25.21
2023-05-11T21:23:23.674Z,25.21
2023-05-11T21:25:23.747Z,25.19
2023-05-11T21:27:23.767Z,25.28
2023-05-11T21:29:23.778Z,25.21
2023-05-11T21:31:23.749Z,25.19
2023-05-11T21:33:23.804Z,25.21
2023-05-11T21:35:23.808Z,25.24
2023-05-11T21:37:23.843Z,25.19
2023-05-11T21:39:23.770Z,25.21
2023-05-11T21:41:23.794Z,25.18
2023-05-11T21:43:23.825Z,25.26
2023-05-11T21:45:23.814Z,25.21
2023-05-11T21:47:23.805Z,25.24
2023-05-11T21:49:23.748Z,25.23
2023-05-11T21:51:23.768Z,25.21
2023-05-11T21:53:23.746Z,25.21
2023-05-11T21:55:23.797Z,25.32
2023-05-11T21:57:23.801Z,25.21
2023-05-11T21:59:23.775Z,25.24
2023-05-11T22:01:23.872Z,25.23
2023-05-11T22:03:24.125Z,25.21
2023-05-11T22:05:23.826Z,25.23
2023-05-11T22:07:23.821Z,25.19
2023-05-11T22:09:23.793Z,25.28
2023-05-11T22:11:23.825Z,25.21
2023-05-11T22:13:23.722Z,25.21
2023-05-11T22:15:23.742Z,25.22
2023-05-11T22:17:23.915Z,25.23
2023-05-11T22:19:23.850Z,25.24
2023-05-11T22:21:23.858Z,25.25
2023-05-11T22:23:23.847Z,25.23
2023-05-11T22:25:23.795Z,25.23
2023-05-11T22:27:23.831Z,25.24
2023-05-11T22:29:23.789Z,25.29
2023-05-11T22:31:23.798Z,25.31
2023-05-11T22:33:23.739Z,25.23
2023-05-11T22:35:23.907Z,25.21
2023-05-11T22:37:23.805Z,25.23
2023-05-11T22:39:23.886Z,25.23
2023-05-11T22:41:23.856Z,25.22
2023-05-11T22:43:23.834Z,25.26
2023-05-11T22:45:23.837Z,25.22
2023-05-11T22:47:23.865Z,25.35
2023-05-11T22:49:23.844Z,25.23
2023-05-11T22:51:23.781Z,25.21
2023-05-11T22:53:23.819Z,25.24
2023-05-11T22:55:23.818Z,25.23
2023-05-11T22:57:23.861Z,25.21
2023-05-11T22:59:23.877Z,25.21
2023-05-11T23:01:23.796Z,25.22
2023-05-11T23:03:24.171Z,25.21
2023-05-11T23:05:23.886Z,25.24
2023-05-11T23:07:23.860Z,25.26
2023-05-11T23:09:23.896Z,25.20
2023-05-11T23:11:23.882Z,25.19
2023-05-11T23:13:23.956Z,25.28
2023-05-11T23:15:23.904Z,25.17
2023-05-11T23:17:23.959Z,25.23
2023-05-11T23:19:24.047Z,25.29
2023-05-11T23:21:23.852Z,25.23
2023-05-11T23:23:23.914Z,25.23
2023-05-11T23:25:23.918Z,25.13
2023-05-11T23:27:23.878Z,25.23
2023-05-11T23:29:23.957Z,25.23
2023-05-11T23:31:23.830Z,25.21
2023-05-11T23:33:23.942Z,25.26
2023-05-11T23:35:23.906Z,25.19
2023-05-11T23:37:23.877Z,25.23
2023-05-11T23:39:23.893Z,25.23
2023-05-11T23:41:23.892Z,25.23
2023-05-11T23:43:23.942Z,25.23
2023-05-11T23:45:23.913Z,25.24
2023-05-11T23:47:23.931Z,25.21
2023-05-11T23:49:23.924Z,25.21
2023-05-11T23:51:23.986Z,25.32
2023-05-11T23:53:23.837Z,25.23
2023-05-11T23:55:23.931Z,25.26
2023-05-11T23:57:23.949Z,25.23
2023-05-11T23:59:23.877Z,25.19
